Time;durP1;ratioP1;P1;durP2;ratioP2;P2;SDS_P1;SDS_P2;PMS_P1;PMS_P2;Temp;Humidity;BMP_temperature;BMP_pressure;BME280_temperature;BME280_humidity;BME280_pressure;Samples;Min_cycle;Max_cycle;Signal;HPM_P1;HPM_P2
2021/12/21 00:00:19;;;;;;;14.18;8.18;;;-0.20;80.60;;;;;;5054048;28;20495;-66
2021/12/21 00:02:49;;;;;;;20.45;8.35;;;-0.30;80.50;;;;;;5050911;28;20063;-66
2021/12/21 00:05:19;;;;;;;24.27;8.82;;;-0.30;80.60;;;;;;5051216;28;20036;-66
2021/12/21 00:07:47;;;;;;;15.93;8.45;;;-0.30;80.60;;;;;;5052921;28;20057;-66
2021/12/21 00:10:14;;;;;;;15.80;8.00;;;-0.40;80.50;;;;;;5053827;28;20040;-66
2021/12/21 00:12:50;;;;;;;15.57;8.23;;;-0.40;80.50;;;;;;5053283;28;20484;-66
2021/12/21 00:18:18;;;;;;;21.85;8.18;;;-0.40;80.50;;;;;;5050936;28;20506;-66
2021/12/21 00:23:59;;;;;;;16.95;8.25;;;-0.50;80.60;;;;;;5056735;28;20125;-66
2021/12/21 00:26:08;;;;;;;14.98;7.60;;;-0.60;80.70;;;;;;5048456;28;20267;-66
2021/12/21 00:28:41;;;;;;;21.50;8.85;;;-0.60;80.70;;;;;;5056260;28;20021;-67
2021/12/21 00:31:06;;;;;;;17.63;8.30;;;-0.60;81.60;;;;;;5054775;28;20522;-66
2021/12/21 00:33:32;;;;;;;18.30;8.80;;;-0.60;80.70;;;;;;5050798;28;20036;-66
2021/12/21 00:35:58;;;;;;;17.63;8.90;;;-0.60;80.80;;;;;;5053314;28;20029;-66
2021/12/21 00:38:23;;;;;;;16.48;8.25;;;-0.70;80.90;;;;;;5055350;28;20033;-66
2021/12/21 00:40:49;;;;;;;21.40;8.75;;;-0.70;82.00;;;;;;5050914;28;20041;-66
2021/12/21 00:43:15;;;;;;;19.30;8.75;;;-0.70;81.20;;;;;;5057064;28;20528;-66
2021/12/21 00:45:41;;;;;;;20.65;8.48;;;-0.70;81.10;;;;;;5054980;28;20036;-66
2021/12/21 00:48:06;;;;;;;19.48;8.40;;;-0.60;81.10;;;;;;5050550;28;20028;-66
2021/12/21 00:50:32;;;;;;;16.17;7.60;;;-0.60;81.10;;;;;;5051846;28;20028;-66
2021/12/21 00:52:58;;;;;;;13.85;7.47;;;-0.60;81.30;;;;;;5056675;28;20561;-66
2021/12/21 00:55:24;;;;;;;16.55;7.75;;;-0.60;81.30;;;;;;5052866;28;20123;-66
2021/12/21 00:57:50;;;;;;;16.38;7.05;;;-0.60;81.30;;;;;;5052783;28;20033;-66
2021/12/21 01:00:18;;;;;;;16.08;7.30;;;-0.60;81.40;;;;;;5051918;28;20439;-66
2021/12/21 01:02:44;;;;;;;14.30;7.50;;;-0.60;81.60;;;;;;5055871;28;20935;-66
2021/12/21 01:05:24;;;;;;;16.58;7.47;;;-0.60;81.60;;;;;;5052008;28;20040;-66
2021/12/21 01:07:53;;;;;;;13.00;7.03;;;-0.60;81.60;;;;;;5053982;28;20592;-66
2021/12/21 01:13:11;;;;;;;17.45;7.22;;;-0.70;81.60;;;;;;5047489;28;20588;-66
2021/12/21 01:18:19;;;;;;;13.82;7.63;;;-0.60;81.80;;;;;;5050162;28;20036;-66
2021/12/21 01:21:06;;;;;;;14.10;7.43;;;-0.60;81.80;;;;;;5053310;28;20033;-66
2021/12/21 01:26:49;;;;;;;13.98;7.10;;;-0.60;81.90;;;;;;5060925;28;20057;-66
2021/12/21 01:29:22;;;;;;;13.75;6.45;;;-0.60;82.00;;;;;;5058302;28;20037;-66
2021/12/21 01:36:51;;;;;;;15.75;7.18;;;-0.50;81.50;;;;;;5057432;28;20048;-66
2021/12/21 01:44:40;;;;;;;13.13;7.43;;;-0.60;80.90;;;;;;5057053;28;20060;-65
2021/12/21 01:49:49;;;;;;;11.10;6.57;;;-0.60;80.70;;;;;;5057057;28;20445;-66
2021/12/21 01:52:20;;;;;;;13.25;6.78;;;-0.70;80.40;;;;;;5059440;28;20089;-66
2021/12/21 01:54:46;;;;;;;15.60;7.15;;;-0.70;80.50;;;;;;5056363;28;20036;-66
2021/12/21 01:57:12;;;;;;;12.65;6.80;;;-0.70;80.60;;;;;;5055634;28;20127;-66
2021/12/21 01:59:39;;;;;;;13.48;6.82;;;-0.80;80.30;;;;;;5055459;28;20044;-66
2021/12/21 02:02:08;;;;;;;15.80;6.78;;;-0.80;80.10;;;;;;5058140;28;20047;-66
2021/12/21 02:04:37;;;;;;;13.90;7.03;;;-0.80;80.00;;;;;;5057320;28;20029;-66
2021/12/21 02:07:05;;;;;;;14.15;6.88;;;-0.90;80.10;;;;;;5055483;28;20091;-66
2021/12/21 02:09:37;;;;;;;12.13;6.75;;;-0.90;80.20;;;;;;5059764;28;20674;-66
2021/12/21 02:12:14;;;;;;;14.88;7.03;;;-1.00;80.20;;;;;;5052219;28;20033;-66
2021/12/21 02:14:43;;;;;;;15.88;6.60;;;-1.00;80.20;;;;;;5052486;28;20025;-66
2021/12/21 02:23:08;;;;;;;11.63;6.85;;;-1.00;80.00;;;;;;4995864;28;20362;-66
2021/12/21 02:26:01;;;;;;;15.25;6.70;;;-1.00;80.60;;;;;;4993327;28;20038;-66
2021/12/21 02:30:55;;;;;;;12.55;6.25;;;-1.10;80.20;;;;;;5056446;28;20159;-66
2021/12/21 02:33:23;;;;;;;12.70;6.55;;;-1.10;80.20;;;;;;5055724;28;20056;-66
2021/12/21 02:35:49;;;;;;;15.55;6.97;;;-1.10;80.10;;;;;;5053845;28;20575;-66
2021/12/21 02:38:15;;;;;;;14.95;7.38;;;-1.20;80.00;;;;;;5057894;28;20574;-66
2021/12/21 02:40:41;;;;;;;15.70;6.25;;;-1.20;80.00;;;;;;5056869;28;20044;-66
2021/12/21 02:43:10;;;;;;;11.23;6.35;;;-1.30;80.00;;;;;;5057308;28;20029;-66
2021/12/21 02:45:36;;;;;;;14.18;6.78;;;-1.30;80.00;;;;;;5057459;28;20116;-66
2021/12/21 02:48:03;;;;;;;15.73;6.57;;;-1.30;80.20;;;;;;5052719;28;20097;-66
2021/12/21 02:50:28;;;;;;;14.30;6.47;;;-1.30;80.40;;;;;;5054466;28;20036;-66
2021/12/21 02:52:54;;;;;;;13.98;6.97;;;-1.40;80.60;;;;;;5056133;28;20038;-66
2021/12/21 02:55:20;;;;;;;12.52;6.85;;;-1.40;80.70;;;;;;5056585;28;20029;-65
2021/12/21 02:57:45;;;;;;;13.60;7.03;;;-1.40;81.60;;;;;;5054313;28;20082;-66
2021/12/21 03:00:12;;;;;;;12.38;6.68;;;-1.40;80.90;;;;;;5055930;28;20035;-66
2021/12/21 03:02:38;;;;;;;13.13;7.03;;;-1.40;80.90;;;;;;5055569;28;20116;-66
2021/12/21 03:05:04;;;;;;;12.55;6.70;;;-1.40;80.90;;;;;;5053671;28;20450;-66
2021/12/21 03:10:12;;;;;;;10.60;6.32;;;-1.40;80.90;;;;;;5053544;28;20033;-66
2021/12/21 03:15:39;;;;;;;13.40;7.03;;;-1.40;80.70;;;;;;5031493;28;20503;-66
2021/12/21 03:18:05;;;;;;;11.82;7.00;;;-1.30;80.60;;;;;;5049248;28;20033;-66
2021/12/21 03:20:32;;;;;;;14.93;6.63;;;-1.40;80.40;;;;;;5051242;28;20044;-66
2021/12/21 03:22:57;;;;;;;10.50;6.43;;;-1.40;80.60;;;;;;5052370;28;20077;-66
2021/12/21 03:25:23;;;;;;;10.90;6.47;;;-1.50;80.60;;;;;;5052289;28;20029;-66
2021/12/21 03:27:48;;;;;;;14.05;7.30;;;-1.50;80.70;;;;;;5051908;28;20035;-66
2021/12/21 03:30:16;;;;;;;12.57;6.47;;;-1.50;80.80;;;;;;5056978;28;20040;-66
2021/12/21 03:32:42;;;;;;;12.65;6.32;;;-1.50;80.70;;;;;;5052538;28;20455;-66
2021/12/21 03:35:09;;;;;;;14.27;7.18;;;-1.50;80.60;;;;;;5055411;28;20033;-67
2021/12/21 03:37:35;;;;;;;13.18;6.63;;;-1.50;80.40;;;;;;5056605;28;20052;-66
2021/12/21 03:40:02;;;;;;;13.50;6.90;;;-1.50;80.40;;;;;;5055710;28;20060;-66
2021/12/21 03:42:29;;;;;;;11.98;6.55;;;-1.60;80.20;;;;;;5054251;28;20044;-66
2021/12/21 03:44:54;;;;;;;14.82;6.38;;;-1.60;80.30;;;;;;5055700;28;20033;-66
2021/12/21 03:47:22;;;;;;;13.88;6.70;;;-1.60;80.40;;;;;;5051580;28;20040;-66
2021/12/21 03:49:55;;;;;;;13.13;6.95;;;-1.60;80.40;;;;;;5052365;28;20118;-66
2021/12/21 03:52:24;;;;;;;13.98;7.20;;;-1.60;80.40;;;;;;5053301;28;20059;-66
2021/12/21 03:54:52;;;;;;;13.90;6.30;;;-1.60;80.60;;;;;;5054848;28;20105;-67
2021/12/21 03:57:18;;;;;;;13.77;7.13;;;-1.70;80.70;;;;;;5053829;28;20967;-66
2021/12/21 03:59:45;;;;;;;14.02;6.43;;;-1.60;80.90;;;;;;5053215;28;20089;-67
2021/12/21 04:02:13;;;;;;;11.98;6.25;;;-1.60;81.10;;;;;;5051450;28;20036;-66
2021/12/21 04:04:40;;;;;;;17.02;6.43;;;-1.70;81.10;;;;;;5057622;28;20085;-66
2021/12/21 04:07:06;;;;;;;12.02;6.45;;;-1.60;81.40;;;;;;5052779;28;20044;-66
2021/12/21 04:09:32;;;;;;;11.63;6.25;;;-1.60;81.50;;;;;;5055536;28;20025;-66
2021/12/21 04:11:57;;;;;;;13.68;6.07;;;-1.60;81.60;;;;;;5051509;28;20037;-66
2021/12/21 04:14:23;;;;;;;10.07;5.85;;;-1.60;81.80;;;;;;5054320;28;20090;-66
2021/12/21 04:16:51;;;;;;;12.02;6.15;;;-1.60;81.90;;;;;;5051069;28;20393;-66
2021/12/21 04:19:18;;;;;;;12.00;6.47;;;-1.50;82.00;;;;;;5054242;28;20043;-65
2021/12/21 04:21:44;;;;;;;14.32;6.07;;;-1.50;82.10;;;;;;5054155;28;20123;-66
2021/12/21 04:24:09;;;;;;;11.77;6.45;;;-1.50;82.10;;;;;;5055531;28;20161;-67
2021/12/21 04:26:35;;;;;;;11.93;6.50;;;-1.40;82.20;;;;;;5054051;28;20078;-66
2021/12/21 04:29:01;;;;;;;15.23;7.15;;;-1.40;82.30;;;;;;5054856;28;20036;-66
2021/12/21 04:31:27;;;;;;;11.45;6.30;;;-1.40;82.30;;;;;;5052825;28;20028;-66
2021/12/21 04:33:53;;;;;;;11.18;6.10;;;-1.40;83.10;;;;;;5056105;28;20090;-66
2021/12/21 04:36:18;;;;;;;12.75;6.32;;;-1.30;82.30;;;;;;5052726;28;20047;-65
2021/12/21 04:38:48;;;;;;;13.63;6.47;;;-1.30;82.30;;;;;;5054656;28;20067;-65
2021/12/21 04:41:26;;;;;;;16.02;6.78;;;-1.30;82.40;;;;;;5054924;28;20040;-65
2021/12/21 04:43:54;;;;;;;14.88;6.20;;;-1.30;82.30;;;;;;5055070;28;20049;-66
2021/12/21 04:46:21;;;;;;;14.20;6.18;;;-1.30;82.30;;;;;;5054003;28;20029;-66
2021/12/21 04:48:48;;;;;;;11.63;6.68;;;-1.20;82.40;;;;;;5050832;28;20068;-66
2021/12/21 04:51:13;;;;;;;15.95;6.95;;;-1.20;82.30;;;;;;5053380;28;20048;-67
2021/12/21 04:53:40;;;;;;;14.85;6.57;;;-1.20;82.30;;;;;;5052339;28;20390;-66
2021/12/21 04:56:05;;;;;;;16.55;7.00;;;-1.20;82.30;;;;;;5052313;28;20048;-66
2021/12/21 04:58:31;;;;;;;13.63;7.35;;;-1.20;82.30;;;;;;5053313;28;20048;-66
2021/12/21 05:00:57;;;;;;;19.77;8.07;;;-1.20;82.30;;;;;;5052528;28;20512;-66
2021/12/21 05:03:24;;;;;;;17.98;10.50;;;-1.20;82.30;;;;;;5056590;28;20039;-66
2021/12/21 05:05:50;;;;;;;25.92;12.25;;;-1.20;82.30;;;;;;5054214;28;20116;-66
2021/12/21 05:08:38;;;;;;;28.20;13.00;;;-1.10;82.30;;;;;;5051614;28;20029;-66
2021/12/21 05:11:06;;;;;;;25.23;12.07;;;-1.10;82.40;;;;;;5050273;28;20029;-66
2021/12/21 05:13:34;;;;;;;22.27;10.70;;;-1.10;82.30;;;;;;5053995;28;20120;-66
2021/12/21 05:16:00;;;;;;;18.77;10.35;;;-1.10;83.20;;;;;;5052987;28;20035;-66
2021/12/21 05:18:27;;;;;;;21.95;10.05;;;-1.10;82.30;;;;;;5055272;28;20029;-66
2021/12/21 05:20:53;;;;;;;18.50;8.40;;;-1.10;83.20;;;;;;5053229;28;20044;-66
2021/12/21 05:23:18;;;;;;;16.60;8.65;;;-1.10;83.20;;;;;;5051900;28;20048;-66
2021/12/21 05:25:44;;;;;;;18.17;7.82;;;-1.00;82.50;;;;;;5053039;28;20028;-66
2021/12/21 05:28:12;;;;;;;16.00;7.63;;;-1.00;82.50;;;;;;5055005;28;20037;-66
2021/12/21 05:30:39;;;;;;;12.65;7.13;;;-1.00;82.50;;;;;;5055893;28;20028;-66
2021/12/21 05:33:06;;;;;;;12.55;6.35;;;-1.00;82.50;;;;;;5053819;28;20031;-66
2021/12/21 05:35:33;;;;;;;15.07;7.18;;;-0.90;82.50;;;;;;5053728;28;20052;-66
2021/12/21 05:38:03;;;;;;;14.25;7.30;;;-0.90;82.50;;;;;;5051847;28;20037;-66
2021/12/21 05:40:36;;;;;;;14.25;7.32;;;-0.90;82.60;;;;;;5055168;28;20694;-66
2021/12/21 05:43:02;;;;;;;17.50;7.05;;;-0.90;82.60;;;;;;5054051;28;20089;-67
2021/12/21 05:45:28;;;;;;;14.00;7.38;;;-0.90;82.50;;;;;;5052622;28;20032;-66
2021/12/21 05:47:54;;;;;;;17.23;7.75;;;-0.90;82.60;;;;;;5050951;28;20041;-66
2021/12/21 05:50:20;;;;;;;13.05;7.35;;;-0.80;82.60;;;;;;5052945;28;20466;-65
2021/12/21 05:52:47;;;;;;;11.55;7.28;;;-0.80;82.60;;;;;;5052704;28;20052;-66
2021/12/21 05:55:14;;;;;;;13.70;7.20;;;-0.80;82.70;;;;;;5053901;28;20211;-66
2021/12/21 05:57:40;;;;;;;16.90;8.10;;;-0.80;82.60;;;;;;5050369;28;20642;-66
2021/12/21 06:00:12;;;;;;;13.57;8.00;;;-0.80;82.60;;;;;;5052121;28;20032;-65
2021/12/21 06:02:38;;;;;;;16.50;8.43;;;-0.70;82.70;;;;;;5052697;28;20441;-66
2021/12/21 06:05:05;;;;;;;16.65;8.45;;;-0.70;82.60;;;;;;5056583;28;20060;-65
2021/12/21 06:07:32;;;;;;;18.73;8.88;;;-0.70;82.80;;;;;;5058214;28;20748;-66
2021/12/21 06:09:59;;;;;;;16.52;8.48;;;-0.70;82.70;;;;;;5058225;28;20037;-66
2021/12/21 06:12:43;;;;;;;15.75;8.73;;;-0.70;82.70;;;;;;5057013;28;20033;-65
2021/12/21 06:15:51;;;;;;;16.58;8.57;;;-0.60;82.90;;;;;;5058328;28;20087;-66
2021/12/21 06:26:07;;;;;;;15.85;9.40;;;-0.60;83.10;;;;;;5060018;28;20056;-66
2021/12/21 06:28:33;;;;;;;17.60;9.32;;;-0.50;83.20;;;;;;5058927;28;20511;-66
2021/12/21 06:30:59;;;;;;;16.20;9.43;;;-0.50;83.20;;;;;;5059801;28;20120;-66
2021/12/21 06:33:25;;;;;;;15.48;9.05;;;-0.50;83.20;;;;;;5059228;28;20030;-66
2021/12/21 06:35:51;;;;;;;14.68;8.80;;;-0.50;83.20;;;;;;5061000;28;20064;-66
2021/12/21 06:38:17;;;;;;;15.23;8.27;;;-0.40;83.30;;;;;;5059586;28;20194;-66
2021/12/21 06:40:43;;;;;;;13.98;7.93;;;-0.40;83.30;;;;;;5059124;28;20477;-66
2021/12/21 06:43:13;;;;;;;19.15;8.80;;;-0.40;83.30;;;;;;5060346;28;20032;-67
2021/12/21 06:51:12;;;;;;;12.60;8.07;;;-0.30;83.20;;;;;;5058469;28;20116;-66
2021/12/21 06:53:39;;;;;;;19.02;8.90;;;-0.30;83.20;;;;;;5058497;28;20035;-66
2021/12/21 06:56:06;;;;;;;19.08;8.45;;;-0.30;83.20;;;;;;5056866;28;20459;-66
2021/12/21 06:58:33;;;;;;;20.67;11.30;;;-0.30;83.10;;;;;;5057251;28;20028;-66
2021/12/21 07:01:00;;;;;;;27.80;12.57;;;-0.20;83.00;;;;;;5056699;28;20144;-65
2021/12/21 07:03:25;;;;;;;51.28;19.75;;;-0.30;82.80;;;;;;5048564;28;20069;-65
2021/12/21 07:05:52;;;;;;;23.58;11.63;;;-0.20;82.90;;;;;;5049327;28;20168;-64
2021/12/21 07:08:27;;;;;;;22.08;10.27;;;-0.30;82.90;;;;;;5050430;28;20025;-66
2021/12/21 07:11:17;;;;;;;23.75;10.75;;;-0.20;83.00;;;;;;5048132;28;20526;-65
2021/12/21 07:19:12;;;;;;;21.85;10.52;;;-0.20;83.00;;;;;;5051163;28;20094;-65
2021/12/21 07:21:38;;;;;;;49.45;24.05;;;-0.30;82.90;;;;;;5050349;28;20508;-66
2021/12/21 07:24:04;;;;;;;107.93;56.63;;;-0.20;83.10;;;;;;5058728;28;20033;-66
2021/12/21 07:26:30;;;;;;;29.30;14.82;;;-0.20;83.20;;;;;;5048403;28;20400;-66
2021/12/21 07:28:56;;;;;;;21.02;11.73;;;-0.20;83.20;;;;;;5056160;28;20040;-67
2021/12/21 07:31:21;;;;;;;22.23;11.20;;;-0.20;83.20;;;;;;5050744;28;20037;-63
2021/12/21 07:33:47;;;;;;;20.08;11.23;;;-0.20;83.20;;;;;;5048720;28;20060;-65
2021/12/21 07:36:13;;;;;;;22.23;11.52;;;-0.20;83.20;;;;;;5052542;28;20037;-65
2021/12/21 07:38:39;;;;;;;19.00;11.32;;;-0.20;83.20;;;;;;5054877;28;20049;-65
2021/12/21 07:41:04;;;;;;;23.42;11.63;;;-0.20;83.20;;;;;;5050907;28;20073;-66
2021/12/21 07:43:30;;;;;;;19.05;11.68;;;-0.10;83.20;;;;;;5047824;28;20025;-66
2021/12/21 07:45:56;;;;;;;21.60;11.30;;;-0.10;83.30;;;;;;5049250;28;20040;-65
2021/12/21 07:48:22;;;;;;;18.33;10.77;;;-0.10;83.30;;;;;;5050197;28;20033;-66
2021/12/21 07:50:51;;;;;;;19.40;11.02;;;-0.10;83.20;;;;;;5048170;28;20037;-66
2021/12/21 07:53:18;;;;;;;27.38;12.85;;;-0.10;83.20;;;;;;5051455;28;20032;-66
2021/12/21 07:55:44;;;;;;;24.65;12.02;;;-0.10;83.10;;;;;;5051163;28;20033;-66
2021/12/21 07:58:11;;;;;;;31.40;14.05;;;0.00;83.20;;;;;;5050240;28;20033;-65
2021/12/21 08:00:37;;;;;;;21.73;11.75;;;0.00;83.20;;;;;;5054006;28;20174;-65
2021/12/21 08:03:03;;;;;;;22.75;12.13;;;0.00;83.10;;;;;;5053638;28;20045;-65
2021/12/21 08:05:32;;;;;;;20.83;11.57;;;0.00;83.30;;;;;;5042898;28;20037;-66
2021/12/21 08:08:09;;;;;;;21.23;11.65;;;0.00;83.30;;;;;;5051606;28;20033;-65
2021/12/21 08:10:43;;;;;;;18.58;11.38;;;0.00;83.20;;;;;;5050468;28;20102;-65
2021/12/21 08:13:09;;;;;;;22.25;11.98;;;0.00;83.20;;;;;;5057191;28;20399;-65
2021/12/21 08:15:35;;;;;;;22.70;12.13;;;0.10;83.20;;;;;;5057901;28;20036;-65
2021/12/21 08:18:01;;;;;;;23.35;12.23;;;0.10;83.20;;;;;;5055753;28;20039;-65
2021/12/21 08:20:27;;;;;;;22.45;11.98;;;0.10;83.20;;;;;;5052827;28;20067;-64
2021/12/21 08:22:54;;;;;;;23.38;12.75;;;0.10;83.10;;;;;;5056076;28;20094;-64
2021/12/21 08:25:25;;;;;;;24.13;12.85;;;0.10;83.90;;;;;;5057034;28;20091;-65
2021/12/21 08:27:58;;;;;;;25.48;13.38;;;0.10;83.20;;;;;;5059196;28;20060;-66
2021/12/21 08:30:25;;;;;;;23.95;12.10;;;0.10;83.20;;;;;;5054830;28;20056;-66
2021/12/21 08:32:51;;;;;;;23.30;12.93;;;0.20;83.30;;;;;;5057053;28;20028;-65
2021/12/21 08:35:17;;;;;;;25.90;13.07;;;0.20;83.20;;;;;;5057414;28;20094;-65
2021/12/21 08:37:49;;;;;;;23.35;12.38;;;0.20;83.20;;;;;;5053071;28;20075;-64
2021/12/21 08:40:15;;;;;;;23.48;12.43;;;0.20;83.00;;;;;;5056088;28;20435;-65
2021/12/21 08:42:44;;;;;;;25.13;13.25;;;0.20;83.00;;;;;;5049665;28;20029;-65
2021/12/21 08:45:10;;;;;;;24.40;13.88;;;0.20;83.00;;;;;;5050941;28;20044;-65
2021/12/21 08:47:37;;;;;;;26.67;13.75;;;0.20;83.10;;;;;;5049125;28;22118;-65
2021/12/21 08:50:07;;;;;;;23.83;13.65;;;0.20;83.00;;;;;;5055969;28;20029;-68
2021/12/21 08:52:35;;;;;;;25.98;12.77;;;0.20;82.90;;;;;;5056601;28;20076;-66
2021/12/21 08:55:02;;;;;;;26.23;12.52;;;0.20;82.90;;;;;;5050388;28;20443;-66
2021/12/21 08:57:28;;;;;;;22.65;12.82;;;0.20;83.00;;;;;;5052094;28;20059;-66
2021/12/21 08:59:54;;;;;;;24.38;12.15;;;0.30;83.20;;;;;;5051443;28;20499;-66
2021/12/21 09:02:19;;;;;;;25.98;13.27;;;0.30;83.20;;;;;;5051151;28;20048;-66
2021/12/21 09:04:45;;;;;;;23.90;12.70;;;0.30;83.30;;;;;;5055905;28;20044;-66
2021/12/21 09:07:11;;;;;;;26.48;13.43;;;0.30;83.30;;;;;;5056246;28;20041;-66
2021/12/21 09:09:36;;;;;;;28.35;14.02;;;0.30;83.40;;;;;;5056354;28;20100;-65
2021/12/21 09:12:02;;;;;;;26.35;13.73;;;0.40;83.30;;;;;;5054359;28;20082;-65
2021/12/21 09:14:31;;;;;;;23.42;13.20;;;0.40;83.30;;;;;;5053760;28;20029;-65
2021/12/21 09:16:58;;;;;;;26.80;13.80;;;0.40;83.30;;;;;;5056745;28;20499;-66
2021/12/21 09:19:23;;;;;;;26.25;14.52;;;0.40;83.20;;;;;;5053560;28;20400;-66
2021/12/21 09:21:49;;;;;;;31.60;15.52;;;0.50;83.20;;;;;;5056444;28;20041;-67
2021/12/21 09:24:15;;;;;;;31.58;15.57;;;0.50;83.90;;;;;;5057791;28;20119;-67
2021/12/21 09:26:41;;;;;;;27.08;13.93;;;0.50;83.10;;;;;;5056423;28;20033;-66
2021/12/21 09:29:07;;;;;;;27.55;14.25;;;0.50;83.30;;;;;;5056573;28;20368;-65
2021/12/21 09:31:33;;;;;;;29.52;14.93;;;0.50;83.30;;;;;;5055936;28;20037;-66
2021/12/21 09:33:58;;;;;;;27.30;14.55;;;0.60;83.40;;;;;;5056898;28;20086;-68
2021/12/21 09:36:26;;;;;;;28.38;13.85;;;0.60;83.30;;;;;;5054088;28;20033;-65
2021/12/21 09:38:52;;;;;;;27.88;13.63;;;0.70;83.30;;;;;;5054656;28;20495;-65
2021/12/21 09:41:18;;;;;;;27.00;14.38;;;0.70;83.20;;;;;;5055998;28;20065;-68
2021/12/21 09:43:44;;;;;;;27.92;14.10;;;0.70;83.10;;;;;;5061017;28;20029;-66
2021/12/21 09:46:10;;;;;;;31.50;15.52;;;0.70;82.80;;;;;;5059962;28;20037;-68
2021/12/21 09:48:36;;;;;;;26.95;14.07;;;0.70;82.90;;;;;;5059341;28;20033;-68
2021/12/21 09:51:02;;;;;;;28.17;14.45;;;0.80;83.10;;;;;;5059678;28;20396;-68
2021/12/21 09:53:30;;;;;;;27.85;14.20;;;0.80;83.00;;;;;;5060575;28;20037;-68
2021/12/21 09:55:56;;;;;;;26.30;14.32;;;0.80;82.80;;;;;;5058633;28;20040;-64
2021/12/21 09:58:22;;;;;;;27.75;14.57;;;0.80;82.60;;;;;;5058774;28;20029;-68
2021/12/21 10:00:47;;;;;;;26.75;13.95;;;0.80;82.60;;;;;;5057041;28;20493;-66
2021/12/21 10:03:14;;;;;;;26.90;13.38;;;0.80;82.60;;;;;;5058352;28;20032;-66
2021/12/21 10:05:42;;;;;;;23.95;13.88;;;0.80;82.80;;;;;;5058847;28;20064;-66
2021/12/21 10:08:12;;;;;;;26.48;13.60;;;0.80;82.60;;;;;;5059494;28;20054;-66
2021/12/21 10:10:40;;;;;;;23.90;12.82;;;0.80;82.80;;;;;;5058341;28;20033;-67
2021/12/21 10:13:09;;;;;;;24.90;13.98;;;0.80;82.80;;;;;;5060174;28;20025;-66
2021/12/21 10:15:43;;;;;;;21.77;12.50;;;0.90;82.80;;;;;;5057734;28;20032;-66
2021/12/21 10:18:09;;;;;;;25.57;13.33;;;0.90;82.80;;;;;;5059924;28;20648;-66
2021/12/21 10:20:43;;;;;;;27.15;13.43;;;0.90;82.70;;;;;;5059731;28;20123;-66
2021/12/21 10:23:27;;;;;;;29.02;14.65;;;0.90;82.70;;;;;;5058628;28;20036;-66
2021/12/21 10:25:58;;;;;;;31.25;15.02;;;0.90;82.50;;;;;;5059836;28;20083;-67
2021/12/21 10:28:30;;;;;;;27.73;14.18;;;0.90;82.10;;;;;;5059812;28;20032;-66
2021/12/21 10:30:57;;;;;;;26.13;14.35;;;0.90;82.30;;;;;;5043024;28;20028;-66
2021/12/21 10:33:25;;;;;;;29.15;14.77;;;0.90;82.30;;;;;;5057633;28;20044;-66
2021/12/21 10:35:54;;;;;;;29.33;14.60;;;0.90;82.20;;;;;;5057076;28;20074;-65
2021/12/21 10:38:54;;;;;;;29.52;15.70;;;0.90;82.30;;;;;;5059000;28;20090;-66
2021/12/21 10:41:20;;;;;;;32.65;17.10;;;0.90;82.60;;;;;;5059050;28;20286;-66
2021/12/21 10:44:02;;;;;;;28.23;16.05;;;0.80;82.80;;;;;;5061553;28;20561;-66
2021/12/21 10:46:30;;;;;;;25.45;13.68;;;0.90;82.80;;;;;;5054161;28;20039;-66
2021/12/21 10:49:12;;;;;;;25.77;14.23;;;0.90;83.70;;;;;;5057436;28;20032;-65
2021/12/21 10:51:56;;;;;;;26.20;14.05;;;1.00;83.00;;;;;;5057082;28;20037;-66
2021/12/21 10:54:26;;;;;;;22.65;13.05;;;1.00;82.90;;;;;;5053847;28;20039;-65
2021/12/21 10:57:04;;;;;;;25.20;13.55;;;1.00;82.80;;;;;;5054235;28;20040;-66
2021/12/21 10:59:37;;;;;;;28.73;13.23;;;1.00;82.50;;;;;;5053389;28;21065;-66
2021/12/21 11:02:13;;;;;;;25.50;13.55;;;1.10;82.50;;;;;;5051565;28;20044;-65
2021/12/21 11:04:41;;;;;;;25.27;13.27;;;1.10;82.50;;;;;;5051748;28;20041;-66
2021/12/21 11:07:27;;;;;;;26.25;13.27;;;1.10;82.50;;;;;;5053400;28;20043;-65
2021/12/21 11:09:58;;;;;;;27.90;13.57;;;1.10;82.30;;;;;;5054002;28;20036;-66
2021/12/21 11:12:26;;;;;;;29.20;15.27;;;1.10;82.20;;;;;;5051995;28;20037;-65
2021/12/21 11:14:55;;;;;;;28.98;15.38;;;1.10;82.30;;;;;;5057373;28;20107;-66
2021/12/21 11:17:21;;;;;;;29.40;15.27;;;1.10;82.40;;;;;;5054239;28;20551;-66
2021/12/21 11:19:51;;;;;;;27.35;13.50;;;1.10;82.40;;;;;;5057213;28;20040;-66
2021/12/21 11:22:18;;;;;;;23.52;12.82;;;1.20;82.50;;;;;;5056480;28;20037;-66
2021/12/21 11:24:46;;;;;;;24.95;13.32;;;1.20;82.50;;;;;;5056174;28;20086;-66
2021/12/21 11:27:14;;;;;;;26.88;13.80;;;1.20;82.50;;;;;;5059085;28;20036;-66
2021/12/21 11:29:40;;;;;;;25.17;14.25;;;1.30;82.60;;;;;;5055671;28;20114;-66
2021/12/21 11:32:07;;;;;;;24.00;13.85;;;1.30;82.40;;;;;;5053497;28;20136;-66
2021/12/21 11:34:35;;;;;;;24.08;14.07;;;1.30;82.40;;;;;;5071425;28;20214;-66
2021/12/21 11:37:20;;;;;;;28.05;14.55;;;1.40;82.20;;;;;;5054393;28;20041;-66
2021/12/21 11:39:47;;;;;;;23.98;13.60;;;1.40;82.10;;;;;;5057793;28;20033;-66
2021/12/21 11:42:50;;;;;;;23.08;14.25;;;1.40;82.10;;;;;;5055045;28;20091;-66
2021/12/21 11:45:22;;;;;;;24.88;14.18;;;1.40;81.80;;;;;;5034466;28;20032;-66
2021/12/21 11:48:15;;;;;;;27.00;14.43;;;1.40;81.90;;;;;;5058721;28;20051;-66
2021/12/21 11:50:47;;;;;;;23.92;13.57;;;1.40;81.60;;;;;;5056177;28;20032;-66
2021/12/21 11:53:17;;;;;;;21.58;13.13;;;1.40;81.80;;;;;;5056200;28;20033;-66
2021/12/21 11:55:46;;;;;;;22.55;12.65;;;1.40;81.90;;;;;;5056760;28;20175;-66
2021/12/21 11:58:22;;;;;;;23.73;13.18;;;1.40;81.80;;;;;;5055857;28;20028;-66
2021/12/21 12:00:54;;;;;;;25.02;13.13;;;1.50;81.70;;;;;;5057569;28;20691;-67
2021/12/21 12:03:23;;;;;;;26.63;14.30;;;1.40;81.50;;;;;;5058184;28;20049;-66
2021/12/21 12:05:55;;;;;;;21.83;12.15;;;1.50;81.60;;;;;;5057091;28;20052;-67
2021/12/21 12:08:22;;;;;;;21.45;12.43;;;1.50;81.40;;;;;;5050547;28;20554;-66
2021/12/21 12:10:58;;;;;;;23.65;13.27;;;1.50;81.40;;;;;;5057276;28;20731;-66
2021/12/21 12:13:30;;;;;;;25.65;13.10;;;1.50;82.30;;;;;;5057095;28;20473;-65
2021/12/21 12:16:10;;;;;;;24.77;13.82;;;1.50;81.40;;;;;;5055478;28;20404;-66
2021/12/21 12:18:48;;;;;;;21.98;12.80;;;1.50;81.30;;;;;;5059356;28;20017;-64
2021/12/21 12:21:14;;;;;;;25.15;12.75;;;1.50;81.30;;;;;;5057265;28;20037;-66
2021/12/21 12:23:53;;;;;;;24.25;14.25;;;1.50;81.40;;;;;;5057674;28;20090;-66
2021/12/21 12:26:25;;;;;;;28.95;13.90;;;1.60;81.10;;;;;;5058250;28;20244;-66
2021/12/21 12:28:52;;;;;;;23.77;13.23;;;1.60;81.30;;;;;;5057430;28;20033;-66
2021/12/21 12:31:35;;;;;;;25.80;13.75;;;1.60;81.30;;;;;;5057272;28;20032;-66
2021/12/21 12:34:01;;;;;;;24.63;12.63;;;1.50;80.90;;;;;;5057244;28;20025;-66
2021/12/21 12:36:38;;;;;;;23.48;13.35;;;1.60;81.20;;;;;;5057013;28;20094;-66
2021/12/21 12:39:07;;;;;;;24.38;13.38;;;1.50;80.90;;;;;;5056996;28;20579;-66
2021/12/21 12:41:44;;;;;;;24.85;12.38;;;1.50;81.10;;;;;;5057160;28;20033;-66
2021/12/21 12:44:23;;;;;;;25.50;13.43;;;1.50;80.70;;;;;;5057695;28;20049;-66
2021/12/21 12:46:58;;;;;;;21.73;12.85;;;1.50;80.80;;;;;;5054699;28;20037;-66
2021/12/21 12:49:26;;;;;;;21.55;13.07;;;1.50;80.70;;;;;;5057958;28;20061;-66
2021/12/21 12:52:01;;;;;;;28.33;15.48;;;1.50;80.60;;;;;;5058380;28;20040;-66
2021/12/21 12:54:27;;;;;;;26.20;13.80;;;1.50;80.80;;;;;;5057163;28;20112;-66
2021/12/21 12:56:53;;;;;;;23.67;12.98;;;1.50;80.90;;;;;;5057846;28;20427;-66
2021/12/21 12:59:19;;;;;;;20.02;12.05;;;1.60;80.80;;;;;;5056934;28;20046;-67
2021/12/21 13:01:47;;;;;;;24.85;13.35;;;1.60;80.90;;;;;;5058313;28;20535;-66
2021/12/21 13:04:15;;;;;;;19.85;11.75;;;1.60;81.20;;;;;;5053575;28;20037;-66
2021/12/21 13:06:43;;;;;;;18.73;10.73;;;1.60;81.20;;;;;;5057390;28;20132;-66
2021/12/21 13:09:12;;;;;;;19.75;11.63;;;1.60;81.00;;;;;;5055710;28;20114;-65
2021/12/21 13:11:40;;;;;;;21.27;11.25;;;1.60;80.70;;;;;;5054887;28;20036;-67
2021/12/21 13:14:08;;;;;;;21.15;11.55;;;1.60;81.60;;;;;;5056949;28;20066;-66
2021/12/21 13:16:37;;;;;;;22.00;11.77;;;1.60;80.60;;;;;;5053879;28;20040;-65
2021/12/21 13:19:07;;;;;;;24.20;11.55;;;1.60;80.60;;;;;;5057527;28;20393;-66
2021/12/21 13:21:35;;;;;;;20.55;11.30;;;1.60;80.60;;;;;;5056298;28;20060;-66
2021/12/21 13:24:06;;;;;;;24.63;12.50;;;1.60;80.60;;;;;;5055452;28;20407;-66
2021/12/21 13:27:03;;;;;;;25.25;12.43;;;1.60;80.60;;;;;;5056529;28;20092;-66
2021/12/21 13:29:32;;;;;;;24.55;13.55;;;1.60;80.40;;;;;;5056355;28;20508;-66
2021/12/21 13:32:01;;;;;;;23.45;13.75;;;1.60;80.60;;;;;;5056169;28;20045;-66
2021/12/21 13:34:28;;;;;;;24.17;12.90;;;1.60;80.90;;;;;;5054595;28;20029;-66
2021/12/21 13:36:56;;;;;;;24.63;13.18;;;1.60;81.00;;;;;;5049686;28;20090;-66
2021/12/21 13:39:25;;;;;;;24.15;12.82;;;1.70;81.10;;;;;;5042575;28;20040;-66
2021/12/21 13:41:53;;;;;;;30.13;15.23;;;1.70;81.10;;;;;;5049481;28;20082;-66
2021/12/21 13:44:27;;;;;;;25.38;13.30;;;1.70;81.00;;;;;;5052747;28;20067;-66